Fairdale, Kentucky
Current Conditions -  °F | °C
As of 3:56 PM on Wednesday 26 Nov 2014 (Local Time) from KSDF Reporting Station
Broken Clouds Broken Clouds  
Wind Chill: 43°   Ceiling: 13000
Heat Index: 43°   Visibility: 9mi
Dew Point: 27°   Wind: 0mph
Humidity: 53%   Direction: NA
Pressure: 30.03"   Gusts: NA
Location:  38.1°N, 85.76°W
Report Text: KSDF 262056Z 00000KT 9SM SCT027 BKN130 BKN200 06/M03 A3003 RMK AO2 SLP172 T00611028 56022
Loading
Personal Weather Stations






























Interactive Weather Map New forecast layout! Learn more

10-Day Weather Forecast

Advertisements
Track Severe Weather on mobile